Voyager Of The Seas — C6SE5 — position and weather

sailwx.info

Track history (hours):
 
Tides and Currents Weather Stations Pressure Air Temp Water Temp Dewpoint Dewpoint Depression Visibility Wind Speed Wind Dir Waves Ship Positions

Voyager Of The Seas

Operator: Royal Caribbean Cruises Ltd

Last reported at 2018-Aug-15 12:29 UTC. Time now 2018-Aug-15 12:37 UTC.
Position N 33°55' E 134°54'.

Type: Passenger vessel. MMSI: 311317000.

Date/timePositionNaut miles runAvg speedWind from/ knotsBaromVisibWave heightAir tempDewpointWater temp
2018-Aug-15 12:29N 33°55' E 134°54'612.4
2018-Aug-15 12:00N 34°01' E 134°56'612.5
2018-Aug-15 11:30N 34°07' E 134°55'510.3
2018-Aug-15 10:59N 34°12' E 134°57'5 9.9
2018-Aug-15 10:30N 34°17' E 134°58'612.3
2018-Aug-15 10:00N 34°23' E 134°60'713.8
2018-Aug-15 09:30N 34°28' E 135°06'714.3
2018-Aug-15 09:00N 34°33' E 135°12'612.4
2018-Aug-15 08:29N 34°38' E 135°16'4 7.5
2018-Aug-15 07:55N 34°41' E 135°12'0 0.1
2018-Aug-15 07:30N 34°41' E 135°12'0 0.0
2018-Aug-15 07:00N 34°41' E 135°12'0 0.0
2018-Aug-15 06:30N 34°41' E 135°12'0 0.0
2018-Aug-15 05:55N 34°41' E 135°12'0 0.0
2018-Aug-15 05:30N 34°41' E 135°12'0 0.0
2018-Aug-15 05:00N 34°41' E 135°12'0 0.0
2018-Aug-15 04:24N 34°41' E 135°12'0 0.0
2018-Aug-15 03:18N 34°41' E 135°12'0 0.0
2018-Aug-15 03:00N 34°41' E 135°12'0 0.0
2018-Aug-15 02:30N 34°41' E 135°12'0 0.0
2018-Aug-15 02:00N 34°41' E 135°12'0 0.0
2018-Aug-15 01:30N 34°41' E 135°12'0 0.0
2018-Aug-15 00:56N 34°41' E 135°12'0 0.0
2018-Aug-15 00:26N 34°41' E 135°12'0 0.0
2018-Aug-14 23:56N 34°41' E 135°12'0 0.0
2018-Aug-14 23:26N 34°41' E 135°12'0 0.0
2018-Aug-14 22:44N 34°41' E 135°12'0 0.0
2018-Aug-14 22:26N 34°41' E 135°12'0 0.1
2018-Aug-14 22:00N 34°41' E 135°12'2 4.5
2018-Aug-14 21:30N 34°40' E 135°15'612.6
2018-Aug-14 21:00N 34°37' E 135°22'4 7.5
2018-Aug-14 20:31N 34°39' E 135°25'0 0.8
2018-Aug-14 19:55N 34°39' E 135°26'0 0.1
2018-Aug-14 19:25N 34°39' E 135°26'0 0.1
2018-Aug-14 18:55N 34°39' E 135°26'0 0.0
2018-Aug-14 18:25N 34°39' E 135°26'0 0.0
2018-Aug-14 17:55N 34°39' E 135°26'0 0.0
2018-Aug-14 17:25N 34°39' E 135°26'0 0.0
2018-Aug-14 16:55N 34°39' E 135°26'0 0.0
2018-Aug-14 16:25N 34°39' E 135°26'0 0.0
2018-Aug-14 15:49N 34°39' E 135°26'0 0.0
2018-Aug-14 15:25N 34°39' E 135°26'0 0.0
2018-Aug-14 14:55N 34°39' E 135°26'0 0.0
2018-Aug-14 14:25N 34°39' E 135°26'0 0.0
2018-Aug-14 13:31N 34°39' E 135°26'0 0.0
2018-Aug-14 13:25N 34°39' E 135°26'0 0.0
2018-Aug-14 12:55N 34°39' E 135°26'0 0.0
2018-Aug-14 12:19N 34°39' E 135°26'0 0.0
2018-Aug-14 11:37N 34°39' E 135°26'0 0.0
2018-Aug-14 11:31N 34°39' E 135°26'0 0.0
2018-Aug-14 10:54N 34°39' E 135°26'0 0.0
2018-Aug-14 10:31N 34°39' E 135°26'0 0.0
2018-Aug-14 10:01N 34°39' E 135°26'0 0.0
2018-Aug-14 09:31N 34°39' E 135°26'0 0.1
2018-Aug-14 08:55N 34°39' E 135°26'0 0.0
2018-Aug-14 08:31N 34°39' E 135°26'0 0.0
2018-Aug-14 08:00N 34°39' E 135°26'0 0.1
2018-Aug-14 07:30N 34°39' E 135°26'0 0.0
2018-Aug-14 06:58N 34°39' E 135°26'0 0.0
2018-Aug-14 06:28N 34°39' E 135°26'0 0.0
2018-Aug-14 05:58N 34°39' E 135°26'0 0.0
2018-Aug-14 05:28N 34°39' E 135°26'0 0.0
2018-Aug-14 04:58N 34°39' E 135°26'0 0.0
2018-Aug-14 04:22N 34°39' E 135°26'0 0.0
2018-Aug-14 03:58N 34°39' E 135°26'0 0.0
2018-Aug-14 03:28N 34°39' E 135°26'4 7.8
2018-Aug-14 03:00N 34°36' E 135°24'4175.7 240 / 151013.010.8 32.030.729.0
2018-Aug-14 02:58N 34°39' E 135°26'0 0.0
2018-Aug-14 02:28N 34°39' E 135°26'0 0.0
2018-Aug-14 01:58N 34°39' E 135°26'0 0.1
2018-Aug-14 01:28N 34°39' E 135°26'0 0.1
2018-Aug-14 00:58N 34°39' E 135°26'0 0.0
2018-Aug-14 00:28N 34°39' E 135°26'1 1.6
2018-Aug-13 23:57N 34°39' E 135°25'511.6
2018-Aug-13 23:30N 34°36' E 135°20'611.4
2018-Aug-13 23:00N 34°32' E 135°15'917.4
2018-Aug-13 22:31N 34°26' E 135°07'918.2
2018-Aug-13 22:01N 34°19' E 135°00'816.5
2018-Aug-13 21:30N 34°11' E 134°59'714.3
2018-Aug-13 21:00N 34°04' E 134°58'816.1
2018-Aug-13 20:30N 33°56' E 134°57'1115.9
2018-Aug-13 19:49N 33°46' E 134°52'1416.2
2018-Aug-13 18:58N 33°34' E 134°43'67114.6
2018-Aug-11 21:00N 25°12' E 126°12'34820.5 150 / 39993.010.8 28.0
2018-Aug-11 04:00N 21°54' E 121°00'188 4.4 340 / 41002.010.8 30.028.728.0
2018-Aug-09 09:36N 23°26' E 118°02'218.4
2018-Aug-09 09:28N 23°28' E 118°04'918.9
2018-Aug-09 09:00N 23°33' E 118°12'3018.8
2018-Aug-09 07:24N 23°51' E 118°39'49018.6
2018-Aug-08 05:00N 26°06' E 127°18'443 8.9 010 / 141004.010.8 30.028.728.0
2018-Aug-06 03:06N 24°19' E 119°23'218.3
2018-Aug-06 03:00N 24°18' E 119°21'6405.4
2018-Aug-06 03:00N 24°12' E 119°18'5 9.3 020 / 41007.010.8 30.028.729.0
2018-Aug-06 02:30N 24°12' E 119°13'1018.3
2018-Aug-06 01:58N 24°06' E 119°05'918.2
2018-Aug-06 01:29N 24°00' E 118°58'918.7
2018-Aug-06 01:00N 23°55' E 118°50'1018.6
2018-Aug-06 00:29N 23°49' E 118°42'1118.7
2018-Aug-05 23:54N 23°42' E 118°32'  
Track history (hours):
 
Tides and Currents Weather Stations Pressure Air Temp Water Temp Dewpoint Dewpoint Depression Visibility Wind Speed Wind Dir Waves Ship Positions

Voyager Of The Seas

Operator: Royal Caribbean Cruises Ltd

Last reported at 2018-Aug-15 12:29 UTC. Time now 2018-Aug-15 12:37 UTC.
Position N 33°55' E 134°54'.

Type: Passenger vessel. MMSI: 311317000.

Date/timePositionNaut miles runAvg speedWind from/ knotsBaromVisibWave heightAir tempDewpointWater temp
2018-Aug-15 12:29N 33°55' E 134°54'612.4
2018-Aug-15 12:00N 34°01' E 134°56'612.5
2018-Aug-15 11:30N 34°07' E 134°55'510.3
2018-Aug-15 10:59N 34°12' E 134°57'5 9.9
2018-Aug-15 10:30N 34°17' E 134°58'612.3
2018-Aug-15 10:00N 34°23' E 134°60'713.8
2018-Aug-15 09:30N 34°28' E 135°06'714.3
2018-Aug-15 09:00N 34°33' E 135°12'612.4
2018-Aug-15 08:29N 34°38' E 135°16'4 7.5
2018-Aug-15 07:55N 34°41' E 135°12'0 0.1
2018-Aug-15 07:30N 34°41' E 135°12'0 0.0
2018-Aug-15 07:00N 34°41' E 135°12'0 0.0
2018-Aug-15 06:30N 34°41' E 135°12'0 0.0
2018-Aug-15 05:55N 34°41' E 135°12'0 0.0
2018-Aug-15 05:30N 34°41' E 135°12'0 0.0
2018-Aug-15 05:00N 34°41' E 135°12'0 0.0
2018-Aug-15 04:24N 34°41' E 135°12'0 0.0
2018-Aug-15 03:18N 34°41' E 135°12'0 0.0
2018-Aug-15 03:00N 34°41' E 135°12'0 0.0
2018-Aug-15 02:30N 34°41' E 135°12'0 0.0
2018-Aug-15 02:00N 34°41' E 135°12'0 0.0
2018-Aug-15 01:30N 34°41' E 135°12'0 0.0
2018-Aug-15 00:56N 34°41' E 135°12'0 0.0
2018-Aug-15 00:26N 34°41' E 135°12'0 0.0
2018-Aug-14 23:56N 34°41' E 135°12'0 0.0
2018-Aug-14 23:26N 34°41' E 135°12'0 0.0
2018-Aug-14 22:44N 34°41' E 135°12'0 0.0
2018-Aug-14 22:26N 34°41' E 135°12'0 0.1
2018-Aug-14 22:00N 34°41' E 135°12'2 4.5
2018-Aug-14 21:30N 34°40' E 135°15'612.6
2018-Aug-14 21:00N 34°37' E 135°22'4 7.5
2018-Aug-14 20:31N 34°39' E 135°25'0 0.8
2018-Aug-14 19:55N 34°39' E 135°26'0 0.1
2018-Aug-14 19:25N 34°39' E 135°26'0 0.1
2018-Aug-14 18:55N 34°39' E 135°26'0 0.0
2018-Aug-14 18:25N 34°39' E 135°26'0 0.0
2018-Aug-14 17:55N 34°39' E 135°26'0 0.0
2018-Aug-14 17:25N 34°39' E 135°26'0 0.0
2018-Aug-14 16:55N 34°39' E 135°26'0 0.0
2018-Aug-14 16:25N 34°39' E 135°26'0 0.0
2018-Aug-14 15:49N 34°39' E 135°26'0 0.0
2018-Aug-14 15:25N 34°39' E 135°26'0 0.0
2018-Aug-14 14:55N 34°39' E 135°26'0 0.0
2018-Aug-14 14:25N 34°39' E 135°26'0 0.0
2018-Aug-14 13:31N 34°39' E 135°26'0 0.0
2018-Aug-14 13:25N 34°39' E 135°26'0 0.0
2018-Aug-14 12:55N 34°39' E 135°26'0 0.0
2018-Aug-14 12:19N 34°39' E 135°26'0 0.0
2018-Aug-14 11:37N 34°39' E 135°26'0 0.0
2018-Aug-14 11:31N 34°39' E 135°26'0 0.0
2018-Aug-14 10:54N 34°39' E 135°26'0 0.0
2018-Aug-14 10:31N 34°39' E 135°26'0 0.0
2018-Aug-14 10:01N 34°39' E 135°26'0 0.0
2018-Aug-14 09:31N 34°39' E 135°26'0 0.1
2018-Aug-14 08:55N 34°39' E 135°26'0 0.0
2018-Aug-14 08:31N 34°39' E 135°26'0 0.0
2018-Aug-14 08:00N 34°39' E 135°26'0 0.1
2018-Aug-14 07:30N 34°39' E 135°26'0 0.0
2018-Aug-14 06:58N 34°39' E 135°26'0 0.0
2018-Aug-14 06:28N 34°39' E 135°26'0 0.0
2018-Aug-14 05:58N 34°39' E 135°26'0 0.0
2018-Aug-14 05:28N 34°39' E 135°26'0 0.0
2018-Aug-14 04:58N 34°39' E 135°26'0 0.0
2018-Aug-14 04:22N 34°39' E 135°26'0 0.0
2018-Aug-14 03:58N 34°39' E 135°26'0 0.0
2018-Aug-14 03:28N 34°39' E 135°26'4 7.8
2018-Aug-14 03:00N 34°36' E 135°24'4175.7 240 / 151013.010.8 32.030.729.0
2018-Aug-14 02:58N 34°39' E 135°26'0 0.0
2018-Aug-14 02:28N 34°39' E 135°26'0 0.0
2018-Aug-14 01:58N 34°39' E 135°26'0 0.1
2018-Aug-14 01:28N 34°39' E 135°26'0 0.1
2018-Aug-14 00:58N 34°39' E 135°26'0 0.0
2018-Aug-14 00:28N 34°39' E 135°26'1 1.6
2018-Aug-13 23:57N 34°39' E 135°25'511.6
2018-Aug-13 23:30N 34°36' E 135°20'611.4
2018-Aug-13 23:00N 34°32' E 135°15'917.4
2018-Aug-13 22:31N 34°26' E 135°07'918.2
2018-Aug-13 22:01N 34°19' E 135°00'816.5
2018-Aug-13 21:30N 34°11' E 134°59'714.3
2018-Aug-13 21:00N 34°04' E 134°58'816.1
2018-Aug-13 20:30N 33°56' E 134°57'1115.9
2018-Aug-13 19:49N 33°46' E 134°52'1416.2
2018-Aug-13 18:58N 33°34' E 134°43'67114.6
2018-Aug-11 21:00N 25°12' E 126°12'34820.5 150 / 39993.010.8 28.0
2018-Aug-11 04:00N 21°54' E 121°00'188 4.4 340 / 41002.010.8 30.028.728.0
2018-Aug-09 09:36N 23°26' E 118°02'218.4
2018-Aug-09 09:28N 23°28' E 118°04'918.9
2018-Aug-09 09:00N 23°33' E 118°12'3018.8
2018-Aug-09 07:24N 23°51' E 118°39'49018.6
2018-Aug-08 05:00N 26°06' E 127°18'443 8.9 010 / 141004.010.8 30.028.728.0
2018-Aug-06 03:06N 24°19' E 119°23'218.3
2018-Aug-06 03:00N 24°18' E 119°21'6405.4
2018-Aug-06 03:00N 24°12' E 119°18'5 9.3 020 / 41007.010.8 30.028.729.0
2018-Aug-06 02:30N 24°12' E 119°13'1018.3
2018-Aug-06 01:58N 24°06' E 119°05'918.2
2018-Aug-06 01:29N 24°00' E 118°58'918.7
2018-Aug-06 01:00N 23°55' E 118°50'1018.6
2018-Aug-06 00:29N 23°49' E 118°42'1118.7
2018-Aug-05 23:54N 23°42' E 118°32'  

Dump ship's entire track history